Home > Products > Valid Products > TAF

000
FTUS43 KPAH 221700 RRA
TAFPAH
TAF
KPAH 221744Z 2218/2318 05005KT P6SM SKC
     FM230100 00000KT P6SM SKC
     FM230900 00000KT 3SM BR MIFG SKC=



000
FTUS43 KPAH 221700 RRA
TAFEVV
TAF
KEVV 221744Z 2218/2318 03004KT P6SM SKC
     FM231000 00000KT 6SM BR SKC=



000
FTUS43 KPAH 221700 RRA
TAFCGI
TAF
KCGI 221744Z 2218/2318 06007KT P6SM SKC
     FM230100 00000KT P6SM SKC
     FM230900 00000KT 3SM BR MIFG SCT250=



000
FTUS43 KPAH 221700 RRA
TAFCGI
TAF
KCGI 221744Z 2218/2318 06007KT P6SM SKC
     FM230100 00000KT P6SM SKC
     FM230900 00000KT 3SM BR MIFG SCT250=



000
FTUS43 KPAH 221700 RRA
TAFPAH
TAF
KPAH 221744Z 2218/2318 05005KT P6SM SKC
     FM230100 00000KT P6SM SKC
     FM230900 00000KT 3SM BR MIFG SKC=



000
FTUS43 KPAH 221700 RRA
TAFEVV
TAF
KEVV 221744Z 2218/2318 03004KT P6SM SKC
     FM231000 00000KT 6SM BR SKC=



000
FTUS43 KPAH 221100
TAFEVV
TAF
KEVV 221120Z 2212/2312 03004KT P6SM SKC
     FM231000 00000KT 6SM BR SKC=



000
FTUS43 KPAH 221100
TAFCGI
TAF
KCGI 221120Z 2212/2312 00000KT 4SM BR MIFG SKC
     FM221300 06007KT P6SM SKC
     FM230100 00000KT P6SM SKC
     FM230900 00000KT 3SM BR MIFG SCT250=



000
FTUS43 KPAH 221100
TAFPAH
TAF
KPAH 221120Z 2212/2312 05005KT P6SM SKC
     FM230100 00000KT P6SM SKC
     FM230900 00000KT 3SM BR MIFG SKC=



000
FTUS43 KPAH 221000 AAB
TAFCGI
TAF AMD
KCGI 221012Z 2210/2306 00000KT P6SM SKC
     FM221400 06007KT P6SM SKC
     FM230000 00000KT P6SM SKC=



000
FTUS43 KPAH 221000 AAB
TAFCGI
TAF AMD
KCGI 221012Z 2210/2306 00000KT P6SM SKC
     FM221400 06007KT P6SM SKC
     FM230000 00000KT P6SM SKC=



000
FTUS43 KPAH 220800 AAA
TAFCGI
TAF AMD
KCGI 220807Z 2208/2306 05003KT P6SM SKC
      TEMPO 2211/2213 00000KT 4SM BR MIFG
     FM221400 06007KT P6SM SKC
     FM230000 00000KT P6SM SKC=



000
FTUS43 KPAH 220500
TAFCGI
TAF
KCGI 220520Z 2206/2306 04004KT P6SM SKC
      TEMPO 2209/2213 00000KT 4SM BR MIFG
     FM221400 06007KT P6SM SKC
     FM230000 00000KT P6SM SKC=



000
FTUS43 KPAH 220500
TAFEVV
TAF
KEVV 220520Z 2206/2306 03003KT P6SM SKC=



000
FTUS43 KPAH 220500
TAFPAH
TAF
KPAH 220520Z 2206/2306 05005KT P6SM SKC=



000
FTUS43 KPAH 220500
TAFEVV
TAF
KEVV 220520Z 2206/2306 03003KT P6SM SKC=



000
FTUS43 KPAH 220500
TAFPAH
TAF
KPAH 220520Z 2206/2306 05005KT P6SM SKC=



000
FTUS43 KPAH 220500
TAFCGI
TAF
KCGI 220520Z 2206/2306 04004KT P6SM SKC
      TEMPO 2209/2213 00000KT 4SM BR MIFG
     FM221400 06007KT P6SM SKC
     FM230000 00000KT P6SM SKC=



000
FTUS43 KPAH 212300
TAFEVV
TAF
KEVV 212330Z 2200/2224 03004KT P6SM SKC=



000
FTUS43 KPAH 212300
TAFCGI
TAF
KCGI 212330Z 2200/2224 04004KT P6SM SKC
     FM220900 00000KT 4SM BR MIFG SKC
     FM221400 04006KT P6SM SKC=



000
FTUS43 KPAH 212300
TAFPAH
TAF
KPAH 212330Z 2200/2224 04004KT P6SM SKC=



000
FTUS43 KPAH 211700
TAFEVV
TAF
KEVV 211732Z 2118/2218 36008KT P6SM SCT040
     FM220000 VRB02KT P6SM SKC=



000
FTUS43 KPAH 211700
TAFCGI
TAF
KCGI 211732Z 2118/2218 36010G15KT P6SM FEW040
     FM220000 04004KT P6SM SKC
     FM220900 04002KT 4SM BR MIFG SKC
     FM221400 04006KT P6SM SKC=



000
FTUS43 KPAH 211700
TAFPAH
TAF
KPAH 211732Z 2118/2218 36010G15KT P6SM SCT040
     FM220000 04003KT P6SM SKC=



000
FTUS43 KPAH 211100
TAFEVV
TAF
KEVV 211130Z 2112/2212 25003KT P6SM SKC
     FM211400 33007KT P6SM SCT040
     FM220000 VRB02KT P6SM SKC=



000
FTUS43 KPAH 211100
TAFPAH
TAF
KPAH 211130Z 2112/2212 23003KT P6SM SKC
     FM211600 36006KT P6SM SCT040
     FM220200 04004KT P6SM SKC=



000
FTUS43 KPAH 211100
TAFCGI
TAF
KCGI 211130Z 2112/2212 00000KT 2SM BR BCFG SKC
     FM211330 36006KT P6SM FEW040
     FM220200 04004KT P6SM SKC
     FM220900 04003KT 4SM BR MIFG SKC=



000
FTUS43 KPAH 211100
TAFEVV
TAF
KEVV 211130Z 2112/2212 25003KT P6SM SKC
     FM211400 33007KT P6SM SCT040
     FM220000 VRB02KT P6SM SKC=



000
FTUS43 KPAH 211100
TAFCGI
TAF
KCGI 211130Z 2112/2212 00000KT 2SM BR BCFG SKC
     FM211330 36006KT P6SM FEW040
     FM220200 04004KT P6SM SKC
     FM220900 04003KT 4SM BR MIFG SKC=



000
FTUS43 KPAH 211100
TAFPAH
TAF
KPAH 211130Z 2112/2212 23003KT P6SM SKC
     FM211600 36006KT P6SM SCT040
     FM220200 04004KT P6SM SKC=



000
FTUS43 KPAH 210500
TAFEVV
TAF
KEVV 210520Z 2106/2206 31004KT P6SM SKC
     FM210900 35004KT P6SM SCT060
     FM211600 34007KT P6SM SCT050
     FM220000 02003KT P6SM SCT040=



000
FTUS43 KPAH 210500
TAFPAH
TAF
KPAH 210520Z 2106/2206 29003KT P6SM SKC
     FM211600 36006KT P6SM SCT040
     FM220200 04005KT P6SM SKC=



000
FTUS43 KPAH 210500
TAFCGI
TAF
KCGI 210520Z 2106/2206 00000KT P6SM SKC
     FM210800 36002KT 4SM BR MIFG SKC
     FM211400 36006KT P6SM FEW040
     FM220200 03004KT P6SM SKC=



000
FTUS43 KPAH 202300
TAFPAH
TAF
KPAH 202327Z 2100/2124 25004KT P6SM FEW060
     FM210200 33004KT P6SM SKC
     FM211600 36007KT P6SM SCT040=



000
FTUS43 KPAH 202300
TAFCGI
TAF
KCGI 202327Z 2100/2124 25005KT P6SM FEW070
     FM210100 34003KT P6SM SKC
     FM210700 36002KT 4SM BR MIFG SKC
     FM211400 36006KT P6SM FEW040=



000
FTUS43 KPAH 202300
TAFEVV
TAF
KEVV 202327Z 2100/2124 33004KT P6SM SKC
     FM211600 35008KT P6SM SCT040=



000
FTUS43 KPAH 201700
TAFPAH
TAF
KPAH 201738Z 2018/2118 24008KT P6SM SCT040
     FM202000 26008KT P6SM BKN040
     FM210800 00000KT 6SM BR SKC
     FM211400 35008KT P6SM SKC=



000
FTUS43 KPAH 201700
TAFEVV
TAF
KEVV 201738Z 2018/2118 24008KT P6SM BKN040
     FM210000 32004KT P6SM SKC
     FM211400 34009KT P6SM SKC=



000
FTUS43 KPAH 201700
TAFCGI
TAF
KCGI 201738Z 2018/2118 24009KT P6SM SCT070
     FM202000 26008KT P6SM BKN040
     FM210100 34003KT P6SM SKC
     FM210700 36002KT 4SM BR MIFG SKC
     FM211400 36008KT P6SM SCT050=



000
FTUS43 KPAH 201100
TAFEVV
TAF
KEVV 201126Z 2012/2112 21003KT P6SM VCSH BKN100
     FM201500 22011KT P6SM SCT040 BKN100
     FM201800 24008KT P6SM BKN040
     FM210000 29004KT P6SM SKC=



000
FTUS43 KPAH 201100
TAFPAH
TAF
KPAH 201126Z 2012/2112 21005KT P6SM VCSH BKN130
     FM201600 24008KT P6SM SCT040
     FM202000 26008KT P6SM BKN040
     FM210200 33003KT P6SM SKC=



000
FTUS43 KPAH 201100
TAFCGI
TAF
KCGI 201126Z 2012/2112 00000KT P6SM VCSH BKN110
     FM201500 24008KT P6SM SCT040
     FM201900 26008KT P6SM BKN040
     FM210100 33003KT P6SM SKC=



000
FTUS43 KPAH 200500
TAFEVV
TAF
KEVV 200520Z 2006/2106 21003KT P6SM BKN140
     FM201500 23010G17KT P6SM SCT040
     FM210100 31003KT P6SM SKC=



000
FTUS43 KPAH 200500
TAFPAH
TAF
KPAH 200520Z 2006/2106 19004KT P6SM BKN150
     FM201600 24008KT P6SM SCT040
     FM210200 33003KT P6SM SKC=



000
FTUS43 KPAH 200500
TAFCGI
TAF
KCGI 200520Z 2006/2106 19003KT P6SM BKN140
     FM201600 24008KT P6SM SCT040
     FM210100 33003KT P6SM SKC=



000
FTUS43 KPAH 192300
TAFEVV
TAF
KEVV 192338Z 2000/2024 00000KT P6SM BKN200
     FM200800 22003KT P6SM -SHRA OVC120
     FM201500 23009G15KT P6SM SCT050=



000
FTUS43 KPAH 192300
TAFPAH
TAF
KPAH 192338Z 2000/2024 20003KT P6SM BKN150
     FM201600 24007KT P6SM SCT050
     FM202200 25004KT P6SM -SHRA BKN040=



000
FTUS43 KPAH 192300
TAFCGI
TAF
KCGI 192338Z 2000/2024 18003KT P6SM BKN150
     FM201500 24007KT P6SM SCT050=



000
FTUS43 KPAH 192300
TAFPAH
TAF
KPAH 192338Z 2000/2024 20003KT P6SM BKN150
     FM201600 24007KT P6SM SCT050
     FM202200 25004KT P6SM -SHRA BKN040=



000
FTUS43 KPAH 192300
TAFEVV
TAF
KEVV 192338Z 2000/2024 00000KT P6SM BKN200
     FM200800 22003KT P6SM -SHRA OVC120
     FM201500 23009G15KT P6SM SCT050=



000
FTUS43 KPAH 192300
TAFCGI
TAF
KCGI 192338Z 2000/2024 18003KT P6SM BKN150
     FM201500 24007KT P6SM SCT050=



    US Dept of Commerce
    National Oceanic and Atmospheric Administration
    National Weather Service
    1325 East West Highway
    Silver Spring, MD 20910
    Page Author: NWS Internet Services Team
Disclaimer
Information Quality
Credits
Glossary
Privacy Policy
Freedom of Information Act (FOIA)
About Us
Career Opportunities